createdAt,value
2019-05-28T00:00:27.715Z,1.30
2019-05-28T00:02:55.415Z,8.43
2019-05-28T00:05:23.048Z,3.60
2019-05-28T00:07:50.676Z,1.73
2019-05-28T00:10:18.450Z,1.40
2019-05-28T00:12:46.047Z,1.40
2019-05-28T00:15:14.066Z,1.87
2019-05-28T00:17:41.672Z,1.90
2019-05-28T00:20:09.527Z,2.30
2019-05-28T00:22:37.242Z,2.10
2019-05-28T00:25:05.177Z,2.00
2019-05-28T00:27:32.879Z,1.90
2019-05-28T00:30:00.645Z,2.00
2019-05-28T00:32:28.287Z,1.60
2019-05-28T00:34:55.816Z,1.70
2019-05-28T00:37:23.531Z,2.03
2019-05-28T00:39:51.301Z,1.63
2019-05-28T00:42:19.161Z,1.80
2019-05-28T00:44:52.741Z,2.07
2019-05-28T00:47:20.414Z,2.00
2019-05-28T00:49:49.733Z,1.70
2019-05-28T00:52:17.549Z,2.60
2019-05-28T00:54:45.215Z,2.23
2019-05-28T00:57:13.485Z,1.90
2019-05-28T00:59:41.838Z,2.10
2019-05-28T01:02:09.642Z,1.80
2019-05-28T01:04:37.274Z,2.10
2019-05-28T01:07:04.830Z,2.00
2019-05-28T01:09:32.446Z,2.03
2019-05-28T01:12:00.361Z,2.00
2019-05-28T01:14:27.943Z,2.47
2019-05-28T01:16:55.637Z,2.30
2019-05-28T01:19:25.848Z,2.43
2019-05-28T01:21:53.453Z,2.00
2019-05-28T01:24:20.970Z,2.40
2019-05-28T01:26:48.531Z,2.83
2019-05-28T01:29:16.123Z,2.30
2019-05-28T01:31:43.750Z,2.70
2019-05-28T01:34:11.414Z,2.30
2019-05-28T01:36:39.010Z,2.30
2019-05-28T01:39:06.963Z,2.67
2019-05-28T01:41:34.718Z,2.33
2019-05-28T01:44:02.324Z,2.20
2019-05-28T01:46:29.896Z,1.90
2019-05-28T01:48:57.539Z,2.20
2019-05-28T01:51:25.172Z,2.20
2019-05-28T01:53:55.363Z,2.30
2019-05-28T01:56:32.090Z,2.20
2019-05-28T01:58:59.629Z,2.57
2019-05-28T02:01:27.195Z,2.60
2019-05-28T02:03:54.854Z,2.37
2019-05-28T02:06:25.511Z,2.13
2019-05-28T02:08:53.446Z,1.73
2019-05-28T02:11:20.983Z,2.10
2019-05-28T02:13:48.630Z,2.13
2019-05-28T02:16:16.236Z,2.00
2019-05-28T02:18:43.941Z,1.93
2019-05-28T02:21:11.575Z,2.13
2019-05-28T02:23:39.209Z,4.00
2019-05-28T02:26:06.945Z,2.20
2019-05-28T02:28:34.784Z,2.20
2019-05-28T02:31:02.464Z,2.50
2019-05-28T02:33:30.097Z,2.23
2019-05-28T02:35:57.802Z,2.20
2019-05-28T02:38:25.405Z,2.37
2019-05-28T02:40:53.116Z,2.40
2019-05-28T02:43:20.956Z,2.47
2019-05-28T02:45:48.589Z,2.10
2019-05-28T02:48:16.178Z,3.20
2019-05-28T02:51:03.528Z,3.33
2019-05-28T02:53:31.457Z,2.70
2019-05-28T02:55:59.297Z,3.03
2019-05-28T02:58:36.103Z,2.93
2019-05-28T03:01:08.110Z,3.10
2019-05-28T03:03:36.013Z,2.97
2019-05-28T03:06:06.273Z,3.03
2019-05-28T03:08:33.829Z,3.40
2019-05-28T03:11:03.818Z,2.93
2019-05-28T03:13:31.564Z,3.60
2019-05-28T03:16:02.260Z,4.13
2019-05-28T03:18:31.362Z,3.53
2019-05-28T03:21:01.264Z,3.23
2019-05-28T03:23:32.107Z,4.07
2019-05-28T03:25:59.684Z,4.77
2019-05-28T03:28:27.240Z,4.27
2019-05-28T03:30:54.976Z,4.00
2019-05-28T03:33:28.862Z,5.60
2019-05-28T03:35:58.040Z,5.07
2019-05-28T03:38:26.906Z,5.47
2019-05-28T03:40:54.634Z,6.03
2019-05-28T03:43:22.208Z,5.53
2019-05-28T03:45:50.265Z,5.43
2019-05-28T03:48:17.875Z,5.27
2019-05-28T03:50:45.442Z,6.40
2019-05-28T03:53:13.343Z,5.60
2019-05-28T03:55:40.935Z,6.30
2019-05-28T03:58:08.459Z,6.30
2019-05-28T04:00:38.584Z,7.43
2019-05-28T04:03:06.157Z,8.00
2019-05-28T04:05:33.739Z,7.90
2019-05-28T04:08:01.314Z,7.10
2019-05-28T04:10:28.821Z,7.80
2019-05-28T04:12:56.472Z,8.10
2019-05-28T04:15:24.375Z,8.77
2019-05-28T04:17:51.967Z,7.90
2019-05-28T04:20:19.822Z,9.40
2019-05-28T04:22:47.426Z,8.77
2019-05-28T04:25:14.968Z,8.20
2019-05-28T04:27:42.513Z,7.77
2019-05-28T04:30:10.319Z,7.67
2019-05-28T04:32:41.189Z,8.23
2019-05-28T04:35:07.480Z,8.23
2019-05-28T04:37:35.027Z,8.10
2019-05-28T04:40:02.980Z,9.30
2019-05-28T04:42:30.718Z,10.00
2019-05-28T04:44:58.287Z,9.40
2019-05-28T04:47:25.895Z,8.20
2019-05-28T04:49:53.443Z,8.70
2019-05-28T04:52:21.117Z,7.20
2019-05-28T04:54:48.998Z,8.67
2019-05-28T04:57:16.580Z,9.20
2019-05-28T04:59:44.147Z,8.37
2019-05-28T05:02:11.757Z,9.40
2019-05-28T05:04:40.378Z,8.83
2019-05-28T05:07:08.012Z,8.70
2019-05-28T05:09:35.562Z,9.37
2019-05-28T05:12:03.300Z,8.97
2019-05-28T05:14:30.954Z,10.37
2019-05-28T05:16:58.553Z,9.50
2019-05-28T05:19:26.161Z,9.00
2019-05-28T05:21:53.721Z,10.07
2019-05-28T05:24:21.281Z,7.57
2019-05-28T05:26:57.370Z,8.70
2019-05-28T05:29:25.260Z,9.63
2019-05-28T05:31:53.185Z,8.93
2019-05-28T05:34:21.040Z,8.80
2019-05-28T05:36:48.842Z,8.50
2019-05-28T05:39:17.557Z,7.90
2019-05-28T05:41:45.283Z,9.57
2019-05-28T05:44:12.881Z,41.90
2019-05-28T05:46:40.665Z,12.23
2019-05-28T05:49:08.500Z,9.47
2019-05-28T06:05:52.425Z,5.90
2019-05-28T06:21:12.784Z,7.03
2019-05-28T06:23:41.686Z,6.00
2019-05-28T06:26:21.154Z,5.23
2019-05-28T06:28:51.202Z,6.10
2019-05-28T06:31:22.628Z,5.30
2019-05-28T06:33:56.875Z,5.63
2019-05-28T06:39:47.530Z,5.67
2019-05-28T06:42:40.914Z,5.00
2019-05-28T06:45:29.897Z,4.47
2019-05-28T06:47:58.652Z,4.80
2019-05-28T06:50:34.085Z,5.87
2019-05-28T06:53:19.204Z,4.60
2019-05-28T06:56:10.346Z,4.43
2019-05-28T06:58:54.778Z,4.60
2019-05-28T07:01:32.764Z,3.93
2019-05-28T07:04:13.399Z,3.90
2019-05-28T07:06:59.198Z,3.53
2019-05-28T07:09:30.408Z,4.00
2019-05-28T07:12:03.999Z,3.73
2019-05-28T07:14:37.240Z,3.07
2019-05-28T07:17:18.489Z,3.67
2019-05-28T07:19:56.536Z,4.00
2019-05-28T07:22:33.270Z,3.07
2019-05-28T07:25:04.423Z,3.40
2019-05-28T07:27:41.805Z,2.73
2019-05-28T07:30:21.193Z,3.47
2019-05-28T07:32:48.030Z,3.50
2019-05-28T07:35:23.105Z,3.90
2019-05-28T07:37:54.648Z,3.63
2019-05-28T07:40:32.457Z,3.87
2019-05-28T07:43:00.894Z,3.60
2019-05-28T07:45:28.987Z,3.57
2019-05-28T07:47:56.811Z,4.20
2019-05-28T07:50:27.757Z,4.73
2019-05-28T07:53:05.656Z,4.57
2019-05-28T07:55:52.874Z,3.60
2019-05-28T07:58:23.617Z,4.73
2019-05-28T08:00:51.797Z,4.40
2019-05-28T08:03:23.255Z,3.10
2019-05-28T08:05:52.145Z,3.00
2019-05-28T08:08:20.657Z,3.37
2019-05-28T08:10:48.565Z,3.20
2019-05-28T08:13:19.140Z,3.23
2019-05-28T08:15:47.153Z,4.20
2019-05-28T08:18:15.122Z,3.53
2019-05-28T08:20:45.049Z,2.80
2019-05-28T08:23:13.095Z,2.87
2019-05-28T08:25:47.180Z,2.80
2019-05-28T08:28:20.425Z,2.97
2019-05-28T08:30:50.794Z,2.60
2019-05-28T08:33:19.161Z,2.97
2019-05-28T08:35:47.014Z,2.93
2019-05-28T08:38:14.815Z,2.87
2019-05-28T08:40:43.288Z,2.60
2019-05-28T08:43:11.438Z,2.10
2019-05-28T08:45:42.444Z,2.53
2019-05-28T08:48:11.428Z,2.67
2019-05-28T08:50:41.143Z,2.90
2019-05-28T08:53:11.758Z,3.10
2019-05-28T08:56:50.639Z,3.57
2019-05-28T08:59:21.401Z,3.20
2019-05-28T09:01:53.365Z,2.50
2019-05-28T09:04:21.836Z,2.60
2019-05-28T09:06:56.815Z,2.90
2019-05-28T09:09:54.998Z,2.73
2019-05-28T09:12:39.108Z,2.80
2019-05-28T09:15:16.994Z,2.67
2019-05-28T09:17:48.399Z,2.93
2019-05-28T09:20:16.773Z,2.50
2019-05-28T09:22:44.685Z,2.53
2019-05-28T09:25:13.194Z,2.83
2019-05-28T09:27:41.005Z,3.67
2019-05-28T09:30:09.747Z,3.43
2019-05-28T09:32:40.017Z,3.67
2019-05-28T09:35:11.872Z,3.70
2019-05-28T09:37:39.632Z,3.77
2019-05-28T09:40:08.472Z,3.90
2019-05-28T09:42:36.056Z,3.77
2019-05-28T09:45:21.443Z,5.73
2019-05-28T09:47:33.641Z,4.07
2019-05-28T09:50:01.534Z,3.90
2019-05-28T09:52:29.470Z,3.60
2019-05-28T09:54:57.784Z,2.83
2019-05-28T09:57:25.647Z,3.00
2019-05-28T09:59:53.491Z,3.20
2019-05-28T10:02:21.355Z,3.87
2019-05-28T10:04:51.065Z,3.83
2019-05-28T10:07:22.086Z,4.10
2019-05-28T10:09:50.158Z,5.23
2019-05-28T10:12:17.908Z,3.60
2019-05-28T10:14:53.712Z,4.00
2019-05-28T10:17:23.739Z,2.73
2019-05-28T10:19:52.073Z,4.07
2019-05-28T10:22:20.101Z,3.67
2019-05-28T10:24:48.107Z,3.10
2019-05-28T10:27:18.643Z,3.20
2019-05-28T10:29:46.970Z,3.53
2019-05-28T10:32:16.635Z,1.80
2019-05-28T10:35:02.624Z,2.10
2019-05-28T10:37:15.006Z,1.83
2019-05-28T10:39:43.754Z,1.60
2019-05-28T10:42:11.544Z,1.60
2019-05-28T10:44:44.979Z,2.40
2019-05-28T10:47:14.565Z,2.17
2019-05-28T10:49:50.693Z,1.93
2019-05-28T10:52:19.940Z,1.40
2019-05-28T10:54:51.225Z,1.50
2019-05-28T10:57:22.046Z,2.10
2019-05-28T10:59:55.266Z,1.80
2019-05-28T11:02:23.787Z,1.43
2019-05-28T11:04:54.258Z,2.67
2019-05-28T11:07:23.658Z,1.77
2019-05-28T11:09:51.326Z,1.70
2019-05-28T11:12:23.579Z,1.67
2019-05-28T11:14:51.421Z,1.90
2019-05-28T11:17:20.001Z,2.00
2019-05-28T11:20:13.063Z,1.40
2019-05-28T11:22:41.580Z,1.50
2019-05-28T11:25:10.766Z,1.50
2019-05-28T11:27:51.573Z,1.27
2019-05-28T11:31:11.625Z,2.40
2019-05-28T11:34:16.847Z,1.40
2019-05-28T11:46:13.385Z,1.40
2019-05-28T11:49:21.417Z,1.17
2019-05-28T12:07:31.177Z,0.90
2019-05-28T12:10:04.353Z,0.93
2019-05-28T12:12:32.503Z,0.90
2019-05-28T12:15:01.297Z,0.90
2019-05-28T12:17:42.502Z,0.73
2019-05-28T12:20:32.555Z,1.00
2019-05-28T12:23:10.704Z,1.03
2019-05-28T12:25:47.287Z,1.07
2019-05-28T12:28:15.123Z,1.17
2019-05-28T12:30:50.644Z,1.00
2019-05-28T12:33:26.863Z,1.03
2019-05-28T12:36:07.269Z,1.63
2019-05-28T12:38:44.437Z,1.03
2019-05-28T12:42:01.791Z,0.93
2019-05-28T12:44:40.854Z,1.10
2019-05-28T12:46:54.405Z,0.90
2019-05-28T12:50:24.214Z,0.93
2019-05-28T12:53:48.086Z,1.23
2019-05-28T12:56:37.300Z,1.10
2019-05-28T12:59:21.020Z,1.00
2019-05-28T13:12:51.644Z,1.00
2019-05-28T13:15:30.931Z,1.00
2019-05-28T13:25:18.738Z,0.83
2019-05-28T13:31:43.210Z,0.97
2019-05-28T13:39:42.432Z,1.33
2019-05-28T13:41:54.859Z,2.80
2019-05-28T13:45:20.200Z,2.40
2019-05-28T13:48:02.974Z,1.40
2019-05-28T13:50:42.652Z,0.97
2019-05-28T14:01:01.219Z,0.87
2019-05-28T14:04:11.818Z,1.13
2019-05-28T14:12:04.831Z,1.07
2019-05-28T14:18:57.676Z,1.27
2019-05-28T14:21:51.596Z,1.00
2019-05-28T14:24:43.375Z,1.30
2019-05-28T14:27:42.079Z,0.83
2019-05-28T14:33:59.896Z,1.00
2019-05-28T14:37:14.569Z,0.90
2019-05-28T14:41:11.124Z,1.10
2019-05-28T14:44:03.186Z,1.73
2019-05-28T14:46:48.294Z,1.30
2019-05-28T14:50:01.977Z,2.50
2019-05-28T14:52:37.620Z,1.70
2019-05-28T14:55:30.039Z,1.53
2019-05-28T14:59:20.385Z,1.50
2019-05-28T15:04:27.025Z,1.20
2019-05-28T15:11:04.928Z,1.20
2019-05-28T15:33:06.078Z,1.60
2019-05-28T15:41:29.294Z,3.50
2019-05-28T15:53:04.697Z,2.47
2019-05-28T15:57:09.235Z,2.10
2019-05-28T16:13:28.402Z,1.60
2019-05-28T16:17:16.280Z,2.13
2019-05-28T16:21:09.049Z,2.00
2019-05-28T16:32:05.412Z,1.90
2019-05-28T16:34:59.320Z,1.67
2019-05-28T16:41:47.419Z,1.97
2019-05-28T16:53:39.569Z,4.20
2019-05-28T16:56:10.324Z,1.90
2019-05-28T16:58:57.858Z,1.37
2019-05-28T17:02:13.744Z,1.50
2019-05-28T17:04:50.154Z,1.87
2019-05-28T17:14:15.182Z,1.70
2019-05-28T17:17:54.531Z,1.67
2019-05-28T17:20:11.839Z,1.97
2019-05-28T17:23:29.581Z,1.80
2019-05-28T17:26:02.802Z,1.40
2019-05-28T17:29:42.779Z,2.20
2019-05-28T17:33:04.559Z,1.33
2019-05-28T17:35:50.137Z,1.80
2019-05-28T17:38:19.735Z,1.53
2019-05-28T17:40:57.830Z,1.70
2019-05-28T17:50:19.846Z,1.60
2019-05-28T17:52:51.872Z,1.77
2019-05-28T17:55:24.767Z,1.80
2019-05-28T17:57:53.715Z,1.87
2019-05-28T18:00:23.342Z,1.60
2019-05-28T18:02:57.011Z,1.90
2019-05-28T18:05:26.375Z,2.37
2019-05-28T18:08:04.701Z,1.90
2019-05-28T18:10:35.251Z,1.70
2019-05-28T18:13:12.984Z,1.77
2019-05-28T18:15:52.553Z,1.73
2019-05-28T18:18:27.182Z,2.07
2019-05-28T18:21:13.037Z,1.43
2019-05-28T18:23:58.629Z,1.53
2019-05-28T18:26:50.734Z,1.27
2019-05-28T18:29:20.926Z,1.50
2019-05-28T18:31:57.358Z,1.20
2019-05-28T18:34:25.039Z,1.50
2019-05-28T18:36:53.830Z,3.70
2019-05-28T18:39:25.353Z,2.13
2019-05-28T18:41:56.917Z,1.60
2019-05-28T18:45:01.036Z,1.80
2019-05-28T18:47:38.135Z,1.67
2019-05-28T18:50:48.564Z,1.40
2019-05-28T18:53:17.022Z,1.53
2019-05-28T18:56:16.446Z,1.87
2019-05-28T18:58:39.254Z,1.40
2019-05-28T19:01:46.159Z,2.40
2019-05-28T19:04:49.024Z,1.60
2019-05-28T19:07:22.237Z,1.70
2019-05-28T19:10:58.903Z,1.80
2019-05-28T19:13:28.136Z,1.63
2019-05-28T19:16:51.472Z,1.33
2019-05-28T19:19:38.602Z,1.60
2019-05-28T19:22:07.632Z,1.33
2019-05-28T19:24:40.015Z,1.67
2019-05-28T19:27:12.146Z,1.70
2019-05-28T19:29:44.747Z,1.83
2019-05-28T19:32:13.552Z,1.50
2019-05-28T19:34:50.241Z,1.77
2019-05-28T19:37:18.653Z,1.67
2019-05-28T19:39:47.103Z,3.60
2019-05-28T19:42:14.798Z,2.70
2019-05-28T19:44:42.445Z,2.73
2019-05-28T19:47:10.101Z,6.43
2019-05-28T19:49:37.815Z,1.33
2019-05-28T19:52:05.553Z,1.63
2019-05-28T19:54:34.052Z,1.60
2019-05-28T19:57:01.892Z,2.13
2019-05-28T19:59:33.707Z,1.40
2019-05-28T20:02:00.879Z,1.73
2019-05-28T20:04:28.799Z,1.97
2019-05-28T20:06:57.202Z,2.40
2019-05-28T20:09:28.216Z,1.60
2019-05-28T20:12:11.534Z,1.73
2019-05-28T20:14:31.036Z,1.93
2019-05-28T20:16:58.808Z,2.50
2019-05-28T20:19:26.689Z,1.57
2019-05-28T20:21:55.743Z,1.77
2019-05-28T20:24:24.070Z,1.63
2019-05-28T20:26:51.900Z,2.00
2019-05-28T20:29:21.814Z,2.20
2019-05-28T20:31:50.657Z,1.80
2019-05-28T20:34:18.732Z,1.50
2019-05-28T20:36:46.703Z,1.83
2019-05-28T20:39:14.413Z,2.00
2019-05-28T20:41:42.338Z,2.00
2019-05-28T20:44:10.584Z,1.93
2019-05-28T20:46:39.066Z,2.23
2019-05-28T20:49:09.427Z,1.53
2019-05-28T20:51:37.258Z,1.87
2019-05-28T20:54:05.047Z,2.10
2019-05-28T20:56:32.818Z,2.47
2019-05-28T20:59:01.464Z,2.40
2019-05-28T21:01:31.130Z,2.33
2019-05-28T21:03:58.762Z,2.70
2019-05-28T21:06:26.473Z,2.07
2019-05-28T21:08:54.217Z,1.93
2019-05-28T21:11:21.848Z,1.50
2019-05-28T21:13:50.315Z,2.10
2019-05-28T21:16:18.167Z,2.40
2019-05-28T21:18:46.614Z,2.80
2019-05-28T21:21:14.346Z,2.20
2019-05-28T21:23:42.073Z,2.40
2019-05-28T21:26:10.058Z,2.10
2019-05-28T21:28:38.130Z,1.80
2019-05-28T21:31:05.879Z,2.73
2019-05-28T21:33:33.454Z,2.10
2019-05-28T21:36:01.476Z,2.67
2019-05-28T21:38:29.215Z,2.37
2019-05-28T21:40:59.759Z,2.43
2019-05-28T21:43:27.720Z,2.63
2019-05-28T21:45:58.142Z,2.90
2019-05-28T21:48:25.951Z,2.60
2019-05-28T21:50:54.520Z,2.63
2019-05-28T21:53:22.409Z,2.87
2019-05-28T21:55:53.081Z,2.63
2019-05-28T21:58:21.083Z,2.60
2019-05-28T22:00:58.419Z,2.53
2019-05-28T22:03:26.260Z,4.77
2019-05-28T22:05:55.183Z,3.80
2019-05-28T22:08:22.918Z,3.27
2019-05-28T22:10:53.925Z,3.67
2019-05-28T22:13:22.591Z,2.63
2019-05-28T22:15:50.883Z,3.40
2019-05-28T22:18:20.569Z,2.53
2019-05-28T22:20:48.069Z,2.20
2019-05-28T22:23:15.806Z,2.90
2019-05-28T22:25:43.616Z,2.27
2019-05-28T22:28:11.310Z,2.17
2019-05-28T22:30:38.958Z,2.20
2019-05-28T22:33:06.685Z,1.70
2019-05-28T22:35:34.273Z,2.07
2019-05-28T22:38:03.270Z,2.30
2019-05-28T22:40:31.265Z,1.93
2019-05-28T22:43:00.572Z,2.50
2019-05-28T22:45:28.737Z,2.60
2019-05-28T22:47:57.286Z,2.03
2019-05-28T22:50:25.641Z,2.20
2019-05-28T22:52:53.936Z,1.77
2019-05-28T22:55:21.674Z,2.23
2019-05-28T22:57:49.457Z,1.80
2019-05-28T23:00:17.301Z,2.30
2019-05-28T23:02:44.866Z,2.40
2019-05-28T23:05:12.724Z,1.67
2019-05-28T23:07:40.413Z,2.10
2019-05-28T23:10:09.754Z,1.97
2019-05-28T23:12:37.805Z,2.13
2019-05-28T23:15:06.051Z,2.07
2019-05-28T23:17:33.870Z,2.70
2019-05-28T23:20:04.702Z,2.10
2019-05-28T23:22:32.864Z,2.37
2019-05-28T23:25:01.119Z,2.40
2019-05-28T23:27:28.993Z,2.27
2019-05-28T23:29:56.625Z,2.63
2019-05-28T23:32:24.705Z,2.30
2019-05-28T23:34:57.632Z,2.27
2019-05-28T23:37:25.300Z,2.60
2019-05-28T23:39:53.423Z,2.80
2019-05-28T23:42:21.040Z,2.90
2019-05-28T23:44:49.000Z,2.43
2019-05-28T23:47:16.565Z,14.20
2019-05-28T23:49:44.111Z,3.10
2019-05-28T23:52:12.747Z,3.37
2019-05-28T23:54:40.334Z,2.73
2019-05-28T23:57:07.884Z,2.90
2019-05-28T23:59:35.451Z,2.23
